Time;durP1;ratioP1;P1;durP2;ratioP2;P2;SDS_P1;SDS_P2;PMS_P1;PMS_P2;Temp;Humidity;BMP_temperature;BMP_pressure;BME280_temperature;BME280_humidity;BME280_pressure;Samples;Min_cycle;Max_cycle;Signal;HPM_P1;HPM_P2
2021/12/25 00:00:16;;;;;;;6.27;3.20;;;1.20;72.80;;;;;;4805628;29;20034;-76
2021/12/25 00:02:43;;;;;;;8.60;3.13;;;1.10;72.70;;;;;;4823296;29;20045;-76
2021/12/25 00:05:10;;;;;;;9.83;3.70;;;1.10;72.60;;;;;;4807557;29;20042;-77
2021/12/25 00:07:35;;;;;;;7.93;2.90;;;1.10;72.60;;;;;;4816842;29;20043;-77
2021/12/25 00:10:02;;;;;;;5.43;2.30;;;1.00;72.30;;;;;;4821809;29;20061;-77
2021/12/25 00:12:28;;;;;;;12.37;4.07;;;1.00;72.40;;;;;;4806710;29;20042;-77
2021/12/25 00:14:54;;;;;;;7.10;2.10;;;0.90;72.30;;;;;;4826914;29;20047;-76
2021/12/25 00:17:20;;;;;;;6.13;2.33;;;0.90;72.50;;;;;;4827172;29;20042;-78
2021/12/25 00:19:46;;;;;;;6.70;2.57;;;0.90;72.40;;;;;;4809180;29;20107;-77
2021/12/25 00:22:12;;;;;;;6.50;2.30;;;0.80;72.30;;;;;;4825457;29;20042;-77
2021/12/25 00:24:42;;;;;;;7.00;2.37;;;0.80;72.30;;;;;;4808920;29;20398;-77
2021/12/25 00:27:32;;;;;;;5.97;2.00;;;0.80;72.40;;;;;;4823899;29;20053;-77
2021/12/25 00:30:11;;;;;;;9.03;2.40;;;0.80;72.40;;;;;;4810921;29;20054;-77
2021/12/25 00:35:08;;;;;;;5.70;2.70;;;0.70;72.20;;;;;;4819626;29;20095;-77
2021/12/25 00:37:34;;;;;;;5.77;1.90;;;0.70;72.20;;;;;;4827172;29;20113;-77
2021/12/25 00:39:59;;;;;;;4.53;1.90;;;0.60;72.00;;;;;;4810129;29;20038;-77
2021/12/25 00:42:25;;;;;;;6.23;1.53;;;0.60;72.10;;;;;;4808542;29;20055;-77
2021/12/25 00:44:51;;;;;;;7.83;2.33;;;0.60;72.10;;;;;;4810949;29;20046;-77
2021/12/25 00:47:16;;;;;;;5.33;1.80;;;0.50;72.10;;;;;;4810476;29;20050;-77
2021/12/25 00:49:42;;;;;;;5.23;1.63;;;0.50;72.20;;;;;;4802684;29;20065;-77
2021/12/25 00:52:08;;;;;;;4.47;1.20;;;0.50;72.20;;;;;;4821939;29;20054;-78
2021/12/25 00:54:34;;;;;;;6.50;1.60;;;0.50;72.10;;;;;;4806509;29;20050;-77
2021/12/25 00:57:02;;;;;;;5.67;1.20;;;0.50;72.00;;;;;;4818690;29;20133;-77
2021/12/25 00:59:27;;;;;;;6.17;1.63;;;0.50;72.00;;;;;;4816198;29;20047;-77
2021/12/25 01:01:53;;;;;;;8.00;2.03;;;0.50;71.90;;;;;;4810649;29;20065;-77
2021/12/25 01:04:20;;;;;;;5.43;1.37;;;0.40;71.80;;;;;;4824990;29;20130;-78
2021/12/25 01:06:46;;;;;;;5.53;1.33;;;0.40;71.80;;;;;;4827145;29;20085;-77
2021/12/25 01:09:12;;;;;;;5.60;1.60;;;0.40;71.70;;;;;;4827245;29;20514;-77
2021/12/25 01:11:38;;;;;;;5.97;1.40;;;0.40;71.80;;;;;;4825979;29;20038;-77
2021/12/25 01:48:37;;;;;;;5.40;1.20;;;0.00;69.00;;;;;;4752071;30;20091;-77
2021/12/25 01:51:03;;;;;;;6.17;1.17;;;-0.10;69.00;;;;;;4728031;30;20059;-77
2021/12/25 01:53:28;;;;;;;3.17;0.90;;;-0.10;68.90;;;;;;4739842;30;20146;-77
2021/12/25 01:55:54;;;;;;;5.80;0.80;;;-0.10;68.60;;;;;;4733507;30;20477;-77
2021/12/25 01:58:20;;;;;;;3.97;0.80;;;-0.20;68.10;;;;;;4747437;30;20493;-77
2021/12/25 02:00:49;;;;;;;3.83;0.83;;;-0.20;68.10;;;;;;4751661;30;20056;-77
2021/12/25 02:03:17;;;;;;;5.33;0.90;;;-0.20;68.20;;;;;;4753040;30;20402;-77
2021/12/25 02:05:43;;;;;;;2.03;0.70;;;-0.30;68.10;;;;;;4750661;30;20707;-76
2021/12/25 02:08:09;;;;;;;4.63;1.20;;;-0.30;67.60;;;;;;4750861;30;20219;-77
2021/12/25 02:10:35;;;;;;;2.27;0.90;;;-0.30;67.80;;;;;;4720565;30;20052;-77
2021/12/25 02:13:02;;;;;;;3.97;0.93;;;-0.40;67.30;;;;;;4752473;30;20520;-77
2021/12/25 02:15:30;;;;;;;2.57;0.83;;;-0.40;67.20;;;;;;4722434;30;20071;-77
2021/12/25 02:18:11;;;;;;;3.37;0.80;;;-0.40;67.30;;;;;;4749358;30;20048;-77
2021/12/25 02:23:38;;;;;;;3.00;0.83;;;-0.50;67.00;;;;;;4736931;30;20059;-77
2021/12/25 02:26:04;;;;;;;4.27;1.20;;;-0.60;67.10;;;;;;4744966;30;20060;-76
2021/12/25 02:28:31;;;;;;;3.07;0.80;;;-0.50;67.10;;;;;;4764326;30;20153;-76
2021/12/25 02:31:00;;;;;;;2.60;1.00;;;-0.60;67.20;;;;;;4766748;30;20059;-77
2021/12/25 02:33:27;;;;;;;3.97;1.10;;;-0.60;67.40;;;;;;4770041;30;20059;-77
2021/12/25 02:35:54;;;;;;;5.77;1.17;;;-0.70;67.50;;;;;;4754396;30;20105;-76
2021/12/25 02:38:20;;;;;;;2.30;1.00;;;-0.70;67.50;;;;;;4760945;30;20151;-76
2021/12/25 02:40:46;;;;;;;3.63;0.83;;;-0.70;67.60;;;;;;4761119;30;20140;-77
2021/12/25 02:43:12;;;;;;;4.80;0.87;;;-0.70;67.70;;;;;;4769714;30;20051;-77
2021/12/25 02:45:38;;;;;;;3.77;1.10;;;-0.70;68.00;;;;;;4768602;30;20548;-77
2021/12/25 02:48:14;;;;;;;4.37;0.90;;;-0.80;68.00;;;;;;4752674;30;20550;-76
2021/12/25 02:50:40;;;;;;;4.10;1.07;;;-0.80;68.00;;;;;;4743288;30;20064;-77
2021/12/25 02:53:08;;;;;;;1.73;0.60;;;-0.90;67.80;;;;;;4768105;30;20417;-76
2021/12/25 02:55:35;;;;;;;2.43;0.67;;;-0.90;67.70;;;;;;4754314;30;20059;-76
2021/12/25 02:58:01;;;;;;;3.77;0.83;;;-0.90;67.60;;;;;;4767820;29;20054;-77
2021/12/25 03:00:31;;;;;;;2.67;0.80;;;-1.00;67.60;;;;;;4824028;29;20517;-76
2021/12/25 03:02:57;;;;;;;5.60;0.90;;;-1.00;67.40;;;;;;4824244;29;20095;-77
2021/12/25 03:05:23;;;;;;;3.43;0.50;;;-1.00;67.30;;;;;;4808472;29;20054;-77
2021/12/25 03:07:48;;;;;;;1.80;0.60;;;-1.00;67.20;;;;;;4823337;29;20069;-76
2021/12/25 03:10:16;;;;;;;5.40;1.60;;;-1.10;67.10;;;;;;4822058;29;20050;-77
2021/12/25 03:13:05;;;;;;;3.00;0.83;;;-1.10;67.10;;;;;;4808470;29;20046;-77
2021/12/25 03:15:45;;;;;;;3.23;0.80;;;-1.10;67.10;;;;;;4805782;29;20103;-77
2021/12/25 03:18:12;;;;;;;5.30;1.10;;;-1.10;67.00;;;;;;4824676;29;20490;-75
2021/12/25 03:20:40;;;;;;;2.70;1.00;;;-1.20;66.70;;;;;;4804890;29;20129;-77
2021/12/25 03:23:06;;;;;;;6.23;0.93;;;-1.20;66.40;;;;;;4824237;29;20055;-77
2021/12/25 03:25:32;;;;;;;3.97;1.00;;;-1.30;66.40;;;;;;4822847;29;20047;-77
2021/12/25 03:27:58;;;;;;;3.17;0.77;;;-1.30;66.30;;;;;;4807591;29;20395;-77
2021/12/25 03:30:25;;;;;;;5.10;0.87;;;-1.30;66.20;;;;;;4823405;29;20126;-77
2021/12/25 03:32:50;;;;;;;3.00;0.73;;;-1.30;66.20;;;;;;4821823;29;20061;-77
2021/12/25 03:35:16;;;;;;;2.83;0.83;;;-1.30;66.10;;;;;;4807970;29;20042;-77
2021/12/25 03:37:42;;;;;;;3.50;0.90;;;-1.40;66.00;;;;;;4823502;29;20133;-78
2021/12/25 03:40:08;;;;;;;3.70;0.80;;;-1.40;65.80;;;;;;4823263;29;20046;-77
2021/12/25 03:42:34;;;;;;;1.80;0.80;;;-1.40;65.80;;;;;;4822040;29;20053;-78
2021/12/25 03:45:00;;;;;;;4.87;1.07;;;-1.40;65.90;;;;;;4808000;29;20046;-78
2021/12/25 03:47:34;;;;;;;8.47;1.43;;;-1.50;65.40;;;;;;4806764;29;20058;-78
2021/12/25 03:58:18;;;;;;;3.15;1.20;;;-1.60;65.50;;;;;;4821801;29;20372;-78
2021/12/25 04:00:46;;;;;;;3.40;1.00;;;-1.60;65.40;;;;;;4807858;29;20093;-77
2021/12/25 04:03:19;;;;;;;4.97;1.50;;;-1.60;65.00;;;;;;4805354;29;20050;-78
2021/12/25 04:05:47;;;;;;;2.47;1.23;;;-1.60;65.00;;;;;;4806698;29;20054;-78
2021/12/25 04:08:16;;;;;;;1.90;0.63;;;-1.60;64.50;;;;;;4806188;29;20134;-78
2021/12/25 04:10:44;;;;;;;3.40;0.90;;;-1.70;64.70;;;;;;4824347;29;20055;-78
2021/12/25 04:13:13;;;;;;;4.43;1.63;;;-1.70;64.40;;;;;;4819467;29;20074;-78
2021/12/25 04:15:40;;;;;;;2.40;0.70;;;-1.70;64.20;;;;;;4816358;29;20122;-78
2021/12/25 04:18:06;;;;;;;2.93;0.83;;;-1.70;64.50;;;;;;4822488;29;20046;-78
2021/12/25 04:20:32;;;;;;;5.47;0.90;;;-1.80;64.10;;;;;;4823476;29;20530;-78
2021/12/25 04:23:03;;;;;;;3.90;0.60;;;-1.80;63.90;;;;;;4823546;29;20042;-77
2021/12/25 04:25:32;;;;;;;2.27;0.67;;;-1.80;64.10;;;;;;4824102;29;20042;-78
2021/12/25 04:28:07;;;;;;;2.47;0.60;;;-1.80;64.30;;;;;;4805703;29;20057;-78
2021/12/25 05:05:31;;;;;;;1.10;0.40;;;-2.30;64.40;;;;;;4807324;29;20061;-78
2021/12/25 05:07:56;;;;;;;2.70;0.70;;;-2.20;64.40;;;;;;4806834;29;20066;-78
2021/12/25 05:10:22;;;;;;;4.67;0.83;;;-2.20;64.30;;;;;;4792810;29;20068;-78
2021/12/25 05:12:48;;;;;;;2.40;0.70;;;-2.30;64.20;;;;;;4818144;29;20058;-77
2021/12/25 05:15:14;;;;;;;1.80;0.53;;;-2.30;64.40;;;;;;4812063;29;20047;-77
2021/12/25 05:17:39;;;;;;;2.40;0.60;;;-2.30;64.20;;;;;;4814462;29;20143;-77
2021/12/25 05:20:05;;;;;;;1.17;0.60;;;-2.30;64.00;;;;;;4826849;29;20103;-77
2021/12/25 05:22:31;;;;;;;1.77;0.60;;;-2.40;64.20;;;;;;4809168;29;20054;-77
2021/12/25 05:24:57;;;;;;;2.20;0.80;;;-2.40;64.20;;;;;;4826408;29;20038;-77
2021/12/25 05:27:22;;;;;;;1.60;1.47;;;-2.40;64.50;;;;;;4826766;29;20046;-77
2021/12/25 05:29:48;;;;;;;2.63;0.47;;;-2.40;64.50;;;;;;4825809;29;20050;-78
2021/12/25 05:32:16;;;;;;;2.90;0.70;;;-2.40;64.40;;;;;;4826939;29;20093;-77
2021/12/25 05:34:42;;;;;;;1.57;0.53;;;-2.50;64.40;;;;;;4826278;29;20042;-78
2021/12/25 05:37:07;;;;;;;1.87;0.50;;;-2.40;64.40;;;;;;4826766;29;20087;-78
2021/12/25 05:39:33;;;;;;;1.53;0.70;;;-2.40;64.40;;;;;;4809024;29;20046;-77
2021/12/25 05:41:59;;;;;;;1.83;0.60;;;-2.50;64.40;;;;;;4826820;29;20046;-77
2021/12/25 05:44:25;;;;;;;2.33;0.90;;;-2.50;64.60;;;;;;4815100;29;20045;-78
2021/12/25 05:46:51;;;;;;;1.70;0.70;;;-2.50;64.80;;;;;;4809008;29;20069;-77
2021/12/25 05:49:18;;;;;;;3.23;0.80;;;-2.50;64.90;;;;;;4817671;29;20042;-78
2021/12/25 05:51:43;;;;;;;3.33;1.07;;;-2.50;65.00;;;;;;4826653;29;20050;-77
2021/12/25 05:54:09;;;;;;;1.17;0.47;;;-2.50;65.20;;;;;;4810220;29;20038;-77
2021/12/25 05:56:35;;;;;;;1.47;0.50;;;-2.60;65.20;;;;;;4796643;29;20066;-78
2021/12/25 05:59:01;;;;;;;1.97;0.80;;;-2.60;65.30;;;;;;4797837;29;20376;-78
2021/12/25 06:01:27;;;;;;;1.17;0.57;;;-2.60;65.30;;;;;;4808363;29;20083;-78
2021/12/25 06:03:54;;;;;;;3.27;0.87;;;-2.60;65.50;;;;;;4824292;29;20509;-77
2021/12/25 06:06:19;;;;;;;6.07;0.70;;;-2.60;65.50;;;;;;4810168;29;20059;-78
2021/12/25 06:08:45;;;;;;;1.70;0.70;;;-2.60;65.50;;;;;;4809745;29;20701;-77
2021/12/25 06:11:11;;;;;;;3.23;0.70;;;-2.60;65.60;;;;;;4826292;29;20058;-78
2021/12/25 06:13:44;;;;;;;2.07;0.47;;;-2.60;65.60;;;;;;4809074;29;20053;-78
2021/12/25 06:16:09;;;;;;;2.53;0.60;;;-2.70;65.70;;;;;;4799413;29;20057;-77
2021/12/25 06:18:35;;;;;;;4.03;0.90;;;-2.70;65.80;;;;;;4826114;29;20043;-76
2021/12/25 06:21:01;;;;;;;3.57;0.80;;;-2.70;65.80;;;;;;4825858;29;20114;-77
2021/12/25 06:23:29;;;;;;;1.03;0.70;;;-2.70;65.80;;;;;;4826225;29;20486;-77
2021/12/25 06:25:55;;;;;;;1.10;0.50;;;-2.70;65.90;;;;;;4806693;29;20043;-78
2021/12/25 06:28:21;;;;;;;2.10;0.50;;;-2.70;65.90;;;;;;4813017;29;20584;-78
2021/12/25 06:30:49;;;;;;;5.67;0.67;;;-2.70;65.90;;;;;;4821869;29;20509;-77
2021/12/25 06:33:15;;;;;;;1.60;0.70;;;-2.70;65.80;;;;;;4810294;29;20061;-77
2021/12/25 06:35:40;;;;;;;3.33;0.63;;;-2.70;65.90;;;;;;4808126;29;20509;-78
2021/12/25 06:38:06;;;;;;;3.73;0.77;;;-2.70;65.80;;;;;;4790559;29;20059;-77
2021/12/25 06:40:32;;;;;;;2.40;0.80;;;-2.80;65.90;;;;;;4825456;29;20103;-77
2021/12/25 06:42:58;;;;;;;4.83;1.23;;;-2.80;65.80;;;;;;4823816;29;20102;-77
2021/12/25 06:45:24;;;;;;;3.57;0.77;;;-2.80;65.80;;;;;;4808893;29;20085;-77
2021/12/25 06:47:50;;;;;;;3.83;0.90;;;-2.80;65.40;;;;;;4798356;29;20526;-77
2021/12/25 06:50:15;;;;;;;2.00;0.60;;;-2.80;65.30;;;;;;4818387;29;20054;-77
2021/12/25 06:52:45;;;;;;;2.57;0.70;;;-2.80;65.30;;;;;;4819368;29;20089;-77
2021/12/25 06:55:11;;;;;;;2.10;0.60;;;-2.80;65.00;;;;;;4806492;29;20100;-77
2021/12/25 06:57:45;;;;;;;1.33;0.70;;;-2.80;64.90;;;;;;4824577;29;20046;-77
2021/12/25 07:00:11;;;;;;;1.07;0.60;;;-2.80;64.30;;;;;;4825529;29;20085;-77
2021/12/25 07:02:37;;;;;;;2.63;0.60;;;-2.80;64.50;;;;;;4808865;29;20134;-77
2021/12/25 07:05:03;;;;;;;2.83;0.60;;;-2.80;64.10;;;;;;4810926;29;20113;-77
2021/12/25 07:07:29;;;;;;;3.33;0.93;;;-2.80;63.70;;;;;;4834746;29;20046;-77
2021/12/25 07:09:55;;;;;;;0.90;0.57;;;-2.80;63.10;;;;;;4820455;29;20061;-77
2021/12/25 07:12:23;;;;;;;1.23;0.47;;;-2.90;63.20;;;;;;4827426;29;20034;-77
2021/12/25 07:14:49;;;;;;;2.33;0.50;;;-2.80;62.80;;;;;;4825013;29;20046;-77
2021/12/25 07:17:15;;;;;;;1.77;0.43;;;-2.90;62.70;;;;;;4825520;29;20400;-77
2021/12/25 07:19:40;;;;;;;1.50;0.33;;;-2.90;62.10;;;;;;4814933;29;20043;-77
2021/12/25 07:22:06;;;;;;;1.60;0.47;;;-2.90;61.90;;;;;;4824883;29;20050;-77
2021/12/25 07:24:32;;;;;;;0.97;0.50;;;-2.80;61.70;;;;;;4822715;29;20050;-77
2021/12/25 07:26:58;;;;;;;3.43;0.60;;;-2.90;61.20;;;;;;4807397;29;20050;-77
2021/12/25 07:29:24;;;;;;;1.67;0.47;;;-2.90;60.70;;;;;;4821998;29;20039;-78
2021/12/25 07:31:49;;;;;;;3.10;0.53;;;-2.90;60.80;;;;;;4795800;29;20096;-76
2021/12/25 07:34:16;;;;;;;1.10;0.30;;;-2.90;61.10;;;;;;4804084;29;20046;-77
2021/12/25 07:36:41;;;;;;;0.97;0.37;;;-2.90;60.80;;;;;;4808203;29;20129;-77
2021/12/25 07:39:07;;;;;;;2.73;0.60;;;-2.90;60.70;;;;;;4807833;29;20138;-77
2021/12/25 07:41:32;;;;;;;2.10;1.33;;;-3.00;60.70;;;;;;4821206;29;20050;-76
2021/12/25 07:44:00;;;;;;;3.27;0.50;;;-2.90;60.10;;;;;;4808751;29;20521;-77
2021/12/25 07:46:26;;;;;;;1.17;0.20;;;-2.90;60.20;;;;;;4807890;29;20106;-77
2021/12/25 07:48:52;;;;;;;3.03;0.40;;;-3.00;59.80;;;;;;4824882;29;20529;-77
2021/12/25 07:51:18;;;;;;;1.20;0.27;;;-3.00;59.70;;;;;;4805861;29;20089;-76
2021/12/25 07:53:45;;;;;;;1.37;0.40;;;-3.00;59.80;;;;;;4807945;29;20046;-77
2021/12/25 07:56:12;;;;;;;0.97;0.40;;;-3.00;59.90;;;;;;4807462;29;20050;-76
2021/12/25 07:58:38;;;;;;;1.10;0.30;;;-3.00;59.90;;;;;;4808668;29;20050;-76
2021/12/25 08:01:03;;;;;;;1.17;0.40;;;-3.00;59.60;;;;;;4805290;29;20064;-78
2021/12/25 08:03:29;;;;;;;0.93;0.30;;;-3.00;59.60;;;;;;4808396;29;20129;-78
2021/12/25 08:05:55;;;;;;;1.70;0.60;;;-3.10;59.60;;;;;;4801438;29;20071;-78
2021/12/25 08:08:20;;;;;;;1.03;0.30;;;-3.10;59.70;;;;;;4824846;29;20046;-77
2021/12/25 08:10:47;;;;;;;2.50;0.40;;;-3.10;59.70;;;;;;4820083;29;20054;-78
2021/12/25 08:13:14;;;;;;;1.37;0.40;;;-3.10;59.60;;;;;;4820198;29;20091;-78
2021/12/25 08:15:41;;;;;;;0.73;0.33;;;-3.10;59.50;;;;;;4824112;29;20130;-77
2021/12/25 08:18:07;;;;;;;1.27;0.40;;;-3.10;59.40;;;;;;4808129;29;20058;-77
2021/12/25 08:20:35;;;;;;;0.53;0.20;;;-3.10;59.50;;;;;;4824421;29;20050;-77
2021/12/25 08:23:00;;;;;;;3.67;0.47;;;-3.10;59.60;;;;;;4821300;29;20043;-75
2021/12/25 08:25:26;;;;;;;1.33;0.33;;;-3.10;59.70;;;;;;4823478;29;20059;-78
2021/12/25 08:27:53;;;;;;;2.13;0.23;;;-3.10;59.90;;;;;;4807503;29;20073;-78
2021/12/25 08:30:21;;;;;;;1.37;0.30;;;-3.10;60.10;;;;;;4808189;29;20058;-78
2021/12/25 08:32:47;;;;;;;1.57;0.60;;;-3.10;59.90;;;;;;4810417;29;20058;-78
2021/12/25 08:35:15;;;;;;;4.10;0.97;;;-3.10;60.00;;;;;;4808171;29;20479;-77
2021/12/25 08:37:43;;;;;;;1.97;0.60;;;-3.10;60.00;;;;;;4815785;29;20054;-77
2021/12/25 08:40:10;;;;;;;2.77;0.30;;;-3.10;60.10;;;;;;4807684;29;20050;-77
2021/12/25 08:42:36;;;;;;;2.93;0.60;;;-3.10;60.20;;;;;;4800424;29;20055;-77
2021/12/25 08:47:32;;;;;;;2.07;0.70;;;-3.10;60.50;;;;;;4827683;29;20065;-77
2021/12/25 08:49:58;;;;;;;2.43;0.40;;;-3.10;60.50;;;;;;4827270;29;20058;-77
2021/12/25 08:52:25;;;;;;;3.37;0.40;;;-3.10;60.60;;;;;;4825653;29;20059;-77
2021/12/25 08:54:51;;;;;;;1.27;0.33;;;-3.10;60.90;;;;;;4806828;29;20057;-77
2021/12/25 08:57:19;;;;;;;4.17;0.70;;;-3.10;60.70;;;;;;4807112;29;20062;-77
2021/12/25 08:59:46;;;;;;;3.03;0.37;;;-3.10;60.90;;;;;;4826653;29;20059;-77
2021/12/25 09:02:16;;;;;;;1.03;0.30;;;-3.10;61.10;;;;;;4807655;29;20078;-77
2021/12/25 09:04:44;;;;;;;3.73;0.37;;;-3.10;61.40;;;;;;4807335;29;20065;-77
2021/12/25 09:07:10;;;;;;;1.47;0.37;;;-3.10;60.90;;;;;;4805472;29;20057;-76
2021/12/25 09:09:36;;;;;;;1.70;0.47;;;-3.00;61.00;;;;;;4825622;29;20046;-78
2021/12/25 09:12:04;;;;;;;1.77;0.43;;;-3.00;61.10;;;;;;4825922;29;20506;-74
2021/12/25 09:14:30;;;;;;;2.83;0.30;;;-3.00;61.20;;;;;;4825684;29;20053;-75
2021/12/25 09:16:56;;;;;;;4.90;0.73;;;-3.00;61.20;;;;;;4809360;29;20038;-76
2021/12/25 09:19:22;;;;;;;1.63;0.50;;;-2.90;61.30;;;;;;4826432;29;20050;-76
2021/12/25 09:21:48;;;;;;;4.03;0.60;;;-2.90;61.20;;;;;;4809522;29;20057;-75
2021/12/25 09:24:15;;;;;;;0.90;0.30;;;-2.90;61.20;;;;;;4809199;29;20054;-76
2021/12/25 09:26:41;;;;;;;0.80;0.20;;;-2.90;61.20;;;;;;4785314;29;20086;-75
2021/12/25 09:29:07;;;;;;;7.63;0.83;;;-2.90;61.20;;;;;;4825365;29;20121;-75
2021/12/25 09:31:33;;;;;;;3.63;0.80;;;-2.80;61.10;;;;;;4810532;29;20550;-75
2021/12/25 09:33:59;;;;;;;3.67;0.50;;;-2.80;61.00;;;;;;4809119;29;20043;-75
2021/12/25 09:36:26;;;;;;;1.90;0.43;;;-2.80;61.20;;;;;;4820334;29;20368;-74
2021/12/25 09:38:52;;;;;;;0.90;0.40;;;-2.70;61.10;;;;;;4809327;29;20053;-76
2021/12/25 09:41:19;;;;;;;2.43;0.50;;;-2.70;61.00;;;;;;4826617;29;20050;-77
2021/12/25 09:43:47;;;;;;;3.47;0.50;;;-2.50;61.20;;;;;;4805203;29;20057;-76
2021/12/25 09:46:13;;;;;;;2.83;0.50;;;-2.70;61.00;;;;;;4809075;29;20051;-76
2021/12/25 09:48:39;;;;;;;1.73;0.37;;;-2.70;60.90;;;;;;4826220;29;20042;-77
2021/12/25 09:51:06;;;;;;;1.57;0.50;;;-2.60;60.90;;;;;;4806436;29;20061;-78
2021/12/25 09:53:32;;;;;;;2.10;0.30;;;-2.60;60.60;;;;;;4813376;29;20399;-76
2021/12/25 09:55:58;;;;;;;0.73;0.40;;;-2.50;60.50;;;;;;4810406;29;20069;-78
2021/12/25 09:58:25;;;;;;;2.67;0.53;;;-2.40;60.40;;;;;;4805831;29;20061;-77
2021/12/25 10:00:51;;;;;;;3.03;0.40;;;-2.40;60.50;;;;;;4809961;29;20130;-75
2021/12/25 10:03:21;;;;;;;1.70;0.50;;;-2.30;60.20;;;;;;4826078;29;20126;-77
2021/12/25 10:05:50;;;;;;;1.47;0.30;;;-2.20;60.00;;;;;;4825325;29;20050;-77
2021/12/25 10:08:21;;;;;;;5.57;0.50;;;-2.10;60.10;;;;;;4820436;29;20043;-76
2021/12/25 10:10:51;;;;;;;1.57;0.87;;;-2.10;60.20;;;;;;4826009;29;20054;-77
2021/12/25 10:13:35;;;;;;;4.37;0.53;;;-2.00;60.00;;;;;;4824369;29;20070;-77
2021/12/25 10:16:30;;;;;;;3.28;1.58;;;-2.00;59.50;;;;;;4808517;29;20167;-78
2021/12/25 10:19:17;;;;;;;2.80;0.55;;;-1.90;59.40;;;;;;4805617;29;20054;-76
2021/12/25 10:21:43;;;;;;;2.63;0.50;;;-1.90;59.70;;;;;;4816581;29;20061;-77
2021/12/25 10:24:25;;;;;;;4.73;1.17;;;-1.90;59.50;;;;;;4827437;29;20038;-77
2021/12/25 10:26:53;;;;;;;1.97;0.50;;;-1.80;59.70;;;;;;4825215;29;20160;-77
2021/12/25 10:29:30;;;;;;;4.37;0.77;;;-1.80;59.40;;;;;;4822976;29;20145;-77
2021/12/25 10:31:59;;;;;;;1.87;0.47;;;-1.70;59.50;;;;;;4825766;29;20086;-77
2021/12/25 10:34:31;;;;;;;2.67;0.50;;;-1.70;59.50;;;;;;4808898;29;20089;-76
2021/12/25 10:37:07;;;;;;;1.40;0.33;;;-1.60;59.50;;;;;;4824806;29;20046;-77
2021/12/25 10:39:33;;;;;;;1.67;0.40;;;-1.60;59.00;;;;;;4816945;29;20104;-77
2021/12/25 10:42:10;;;;;;;0.97;0.37;;;-1.60;58.90;;;;;;4806887;29;20062;-76
2021/12/25 10:44:40;;;;;;;1.43;0.53;;;-1.60;59.00;;;;;;4806805;29;20078;-77
2021/12/25 10:47:10;;;;;;;1.53;0.47;;;-1.50;58.50;;;;;;4825349;29;20081;-77
2021/12/25 10:49:39;;;;;;;2.10;0.63;;;-1.50;58.60;;;;;;4817165;29;20074;-77
2021/12/25 10:52:25;;;;;;;3.90;1.63;;;-1.50;58.80;;;;;;4787497;29;20046;-77
2021/12/25 10:55:03;;;;;;;2.90;0.70;;;-1.40;58.40;;;;;;4800298;29;20483;-77
2021/12/25 10:57:37;;;;;;;1.47;0.50;;;-1.40;58.10;;;;;;4822184;29;20518;-74
2021/12/25 11:00:14;;;;;;;2.28;0.57;;;-1.40;57.70;;;;;;4824381;29;20129;-76
2021/12/25 11:02:45;;;;;;;2.77;1.00;;;-1.30;57.10;;;;;;4820196;29;20514;-76
2021/12/25 11:05:37;;;;;;;2.60;0.60;;;-1.30;57.20;;;;;;4824852;29;20055;-76
2021/12/25 11:08:04;;;;;;;2.50;1.30;;;-1.30;57.80;;;;;;4825051;29;20050;-76
2021/12/25 11:10:31;;;;;;;4.03;0.70;;;-1.30;57.90;;;;;;4817114;29;20042;-76
2021/12/25 11:12:59;;;;;;;3.13;0.60;;;-1.30;58.00;;;;;;4798106;29;20057;-75
2021/12/25 11:15:30;;;;;;;2.47;0.70;;;-1.30;58.00;;;;;;4825436;29;20376;-76
2021/12/25 11:18:05;;;;;;;2.03;0.70;;;-1.20;57.70;;;;;;4824357;29;20080;-76
2021/12/25 11:20:35;;;;;;;3.83;0.47;;;-1.20;58.10;;;;;;4807271;29;20051;-76
2021/12/25 11:23:03;;;;;;;3.13;0.50;;;-1.20;58.00;;;;;;4804041;29;20038;-76
2021/12/25 11:25:31;;;;;;;1.37;0.60;;;-1.20;57.70;;;;;;4819845;29;20050;-75
2021/12/25 11:27:58;;;;;;;2.83;0.50;;;-1.10;57.60;;;;;;4795661;29;20528;-76
2021/12/25 11:30:27;;;;;;;1.90;0.87;;;-1.10;57.80;;;;;;4825665;29;20117;-76
2021/12/25 11:32:54;;;;;;;2.03;0.50;;;-1.10;57.70;;;;;;4822827;29;20514;-76
2021/12/25 11:35:20;;;;;;;3.13;0.37;;;-1.10;57.00;;;;;;4800275;29;20058;-76
2021/12/25 11:37:49;;;;;;;2.77;0.57;;;-1.10;57.20;;;;;;4808130;29;20054;-76
2021/12/25 11:40:16;;;;;;;1.87;0.50;;;-1.00;57.40;;;;;;4824249;29;20491;-77
2021/12/25 11:42:45;;;;;;;1.93;0.50;;;-1.10;57.60;;;;;;4806577;29;20058;-76
2021/12/25 11:45:18;;;;;;;2.27;0.60;;;-1.00;57.50;;;;;;4818947;29;20050;-76
2021/12/25 11:47:51;;;;;;;2.33;0.40;;;-1.00;57.20;;;;;;4821107;29;20059;-77
2021/12/25 11:50:24;;;;;;;1.93;0.50;;;-1.00;57.20;;;;;;4817963;29;20054;-77
2021/12/25 11:53:25;;;;;;;3.33;0.60;;;-1.00;57.00;;;;;;4821427;29;20503;-77
2021/12/25 11:58:52;;;;;;;3.50;0.73;;;-0.90;56.80;;;;;;4797492;29;20053;-77
2021/12/25 12:01:36;;;;;;;2.40;0.63;;;-0.90;56.80;;;;;;4804719;29;20054;-76
2021/12/25 12:04:13;;;;;;;1.60;0.80;;;-0.90;56.50;;;;;;4822639;29;20042;-76
2021/12/25 12:06:45;;;;;;;2.50;0.60;;;-0.90;56.00;;;;;;4822261;29;20142;-76
2021/12/25 12:09:48;;;;;;;4.27;0.47;;;-0.90;55.70;;;;;;4806502;29;20054;-77
2021/12/25 12:12:22;;;;;;;2.97;0.70;;;-0.80;55.60;;;;;;4804572;29;20070;-76
2021/12/25 12:15:13;;;;;;;2.10;0.70;;;-0.80;55.30;;;;;;4801411;29;20061;-75
2021/12/25 12:17:40;;;;;;;2.53;0.73;;;-0.80;55.40;;;;;;4804207;29;20491;-76
2021/12/25 12:20:07;;;;;;;1.37;0.77;;;-0.80;55.70;;;;;;4824079;29;20647;-76
2021/12/25 12:22:50;;;;;;;4.13;0.77;;;-0.80;55.10;;;;;;4824455;29;20087;-76
2021/12/25 12:28:03;;;;;;;1.80;0.43;;;-0.80;54.90;;;;;;4807678;29;20050;-76
2021/12/25 12:30:32;;;;;;;2.07;0.40;;;-0.80;54.70;;;;;;4823023;29;20086;-76
2021/12/25 12:33:03;;;;;;;2.07;0.50;;;-0.70;54.80;;;;;;4823506;29;20156;-75
2021/12/25 12:35:36;;;;;;;1.23;0.50;;;-0.80;55.40;;;;;;4823559;29;20118;-76
2021/12/25 12:38:24;;;;;;;3.47;1.37;;;-0.70;55.70;;;;;;4834607;29;20050;-76
2021/12/25 12:41:32;;;;;;;3.07;0.90;;;-0.80;55.80;;;;;;4823950;29;20082;-76
2021/12/25 12:44:03;;;;;;;1.20;0.50;;;-0.70;56.40;;;;;;4749141;30;20060;-76
2021/12/25 12:46:47;;;;;;;1.43;0.33;;;-0.70;56.70;;;;;;4749014;30;20052;-75
2021/12/25 12:49:14;;;;;;;2.60;0.40;;;-0.60;55.70;;;;;;4751036;30;20044;-76
2021/12/25 12:51:39;;;;;;;2.17;0.67;;;-0.70;55.90;;;;;;4749379;30;20060;-76
2021/12/25 12:54:05;;;;;;;2.00;0.50;;;-0.60;56.10;;;;;;4740965;30;20136;-75
2021/12/25 12:56:31;;;;;;;2.30;0.70;;;-0.60;56.00;;;;;;4749688;30;20084;-76
2021/12/25 12:58:57;;;;;;;3.73;0.87;;;-0.60;55.70;;;;;;4749465;30;20052;-76
2021/12/25 13:01:24;;;;;;;2.30;0.67;;;-0.60;55.90;;;;;;4734992;30;20113;-76
2021/12/25 13:04:01;;;;;;;1.60;0.60;;;-0.60;56.00;;;;;;4734814;30;20064;-75
2021/12/25 13:06:31;;;;;;;1.80;0.50;;;-0.60;55.00;;;;;;4749522;30;20056;-76
2021/12/25 13:09:05;;;;;;;3.60;0.70;;;-0.60;54.70;;;;;;4734305;30;20560;-76
2021/12/25 13:11:41;;;;;;;3.78;1.02;;;-0.60;54.50;;;;;;4749621;30;20052;-76
2021/12/25 13:14:08;;;;;;;2.90;0.50;;;-0.60;54.70;;;;;;4748883;30;20079;-76
2021/12/25 13:16:43;;;;;;;2.73;1.10;;;-0.60;54.60;;;;;;4749751;30;20135;-76
2021/12/25 13:19:09;;;;;;;1.75;0.55;;;-0.60;54.80;;;;;;4743936;30;20139;-75
2021/12/25 13:21:36;;;;;;;1.53;0.60;;;-0.60;54.70;;;;;;4804652;29;20145;-75
2021/12/25 13:24:13;;;;;;;1.27;0.50;;;-0.60;55.00;;;;;;4835013;29;20425;-75
2021/12/25 13:26:45;;;;;;;2.43;0.63;;;-0.60;55.50;;;;;;4805502;29;20050;-74
2021/12/25 13:29:14;;;;;;;2.37;0.93;;;-0.60;55.90;;;;;;4812776;29;20042;-75
2021/12/25 13:31:41;;;;;;;1.70;1.03;;;-0.60;56.30;;;;;;4825904;29;20065;-75
2021/12/25 13:34:15;;;;;;;2.60;0.70;;;-0.60;56.10;;;;;;4809933;29;20137;-75
2021/12/25 13:36:47;;;;;;;2.83;0.53;;;-0.60;55.40;;;;;;4795485;29;20069;-76
2021/12/25 13:39:16;;;;;;;3.10;0.57;;;-0.60;55.10;;;;;;4810171;29;20074;-75
2021/12/25 13:41:52;;;;;;;3.40;1.10;;;-0.60;54.90;;;;;;4803324;29;20046;-76
2021/12/25 13:44:23;;;;;;;3.83;0.70;;;-0.60;55.50;;;;;;4825714;29;20410;-75
2021/12/25 13:46:51;;;;;;;2.63;0.70;;;-0.60;55.60;;;;;;4810190;29;20494;-76
2021/12/25 13:49:45;;;;;;;3.50;0.60;;;-0.70;55.70;;;;;;4832522;29;20045;-76
2021/12/25 13:52:20;;;;;;;1.73;0.60;;;-0.70;55.90;;;;;;4817093;29;20138;-76
2021/12/25 13:54:47;;;;;;;;;;;-0.70;55.50;;;;;;4826313;29;20062;-76
2021/12/25 13:57:15;;;;;;;2.50;0.77;;;-0.70;55.20;;;;;;4822934;29;19932;-75
2021/12/25 13:59:41;;;;;;;3.20;0.80;;;-0.80;55.60;;;;;;4808849;29;20046;-75
2021/12/25 14:02:11;;;;;;;2.93;1.03;;;-0.80;55.70;;;;;;4820045;29;20433;-75
2021/12/25 14:04:40;;;;;;;3.73;0.80;;;-0.80;55.70;;;;;;4805934;29;20085;-75
2021/12/25 14:07:06;;;;;;;3.80;1.03;;;-0.80;55.90;;;;;;4816996;29;20057;-76
2021/12/25 14:09:33;;;;;;;2.50;0.53;;;-0.80;56.00;;;;;;4807986;29;20035;-78
2021/12/25 14:12:00;;;;;;;1.97;0.70;;;-0.80;56.40;;;;;;4824503;29;20069;-76
2021/12/25 14:14:28;;;;;;;1.93;0.80;;;-0.80;56.30;;;;;;4814568;29;20491;-76
2021/12/25 14:16:55;;;;;;;3.47;1.27;;;-0.80;56.00;;;;;;4823973;29;20153;-76
2021/12/25 14:19:26;;;;;;;1.53;0.60;;;-0.80;56.00;;;;;;4792198;29;20069;-76
2021/12/25 14:22:00;;;;;;;3.40;1.37;;;-0.60;56.00;;;;;;4811361;29;20054;-76
2021/12/25 14:24:30;;;;;;;2.03;0.63;;;-0.80;56.00;;;;;;4824369;29;20053;-76
2021/12/25 14:27:14;;;;;;;3.63;0.90;;;-0.80;55.90;;;;;;4822599;29;20071;-76